createdAt,value
2022-07-27T00:02:01.176Z,0.43
2022-07-27T00:04:31.074Z,0.40
2022-07-27T00:07:00.636Z,0.30
2022-07-27T00:09:30.615Z,0.27
2022-07-27T00:12:00.114Z,0.40
2022-07-27T00:14:29.676Z,0.20
2022-07-27T00:17:00.147Z,0.37
2022-07-27T00:19:29.677Z,0.57
2022-07-27T00:21:59.961Z,0.40
2022-07-27T00:24:29.447Z,0.30
2022-07-27T00:26:58.959Z,0.30
2022-07-27T00:29:28.456Z,0.20
2022-07-27T00:31:58.004Z,0.20
2022-07-27T00:34:29.162Z,0.40
2022-07-27T00:36:58.690Z,0.10
2022-07-27T00:39:28.448Z,0.20
2022-07-27T00:41:57.947Z,0.40
2022-07-27T00:44:33.506Z,0.30
2022-07-27T00:47:03.636Z,0.40
2022-07-27T00:49:33.121Z,0.30
2022-07-27T00:52:02.878Z,0.50
2022-07-27T00:54:32.700Z,0.20
2022-07-27T00:57:02.458Z,0.40
2022-07-27T00:59:32.871Z,0.20
2022-07-27T01:02:02.954Z,0.20
2022-07-27T01:04:32.879Z,0.27
2022-07-27T01:07:05.731Z,0.30
2022-07-27T01:09:54.446Z,0.30
2022-07-27T01:12:25.155Z,0.20
2022-07-27T01:14:55.968Z,0.30
2022-07-27T01:17:27.161Z,0.40
2022-07-27T01:19:56.660Z,0.30
2022-07-27T01:22:26.292Z,0.27
2022-07-27T01:24:55.870Z,0.30
2022-07-27T01:27:25.723Z,0.30
2022-07-27T01:29:55.304Z,0.20
2022-07-27T01:32:24.797Z,0.40
2022-07-27T01:34:54.304Z,0.30
2022-07-27T01:37:23.794Z,0.30
2022-07-27T01:39:53.315Z,0.20
2022-07-27T01:42:22.811Z,0.40
2022-07-27T01:44:54.001Z,0.40
2022-07-27T01:47:23.560Z,0.33
2022-07-27T01:49:53.068Z,0.30
2022-07-27T01:52:22.557Z,0.20
2022-07-27T01:54:52.070Z,0.20
2022-07-27T01:57:21.579Z,0.20
2022-07-27T01:59:51.216Z,0.20
2022-07-27T02:02:20.847Z,0.30
2022-07-27T02:04:50.401Z,0.30
2022-07-27T02:07:19.922Z,0.30
2022-07-27T02:09:49.428Z,0.30
2022-07-27T02:12:36.846Z,0.23
2022-07-27T02:15:15.110Z,0.20
2022-07-27T02:17:45.643Z,0.30
2022-07-27T02:20:19.142Z,0.33
2022-07-27T02:22:49.447Z,0.20
2022-07-27T02:25:20.635Z,0.27
2022-07-27T02:27:51.392Z,0.20
2022-07-27T02:30:20.938Z,0.20
2022-07-27T02:32:50.457Z,0.40
2022-07-27T02:35:20.505Z,0.20
2022-07-27T02:37:50.380Z,0.23
2022-07-27T02:40:20.702Z,0.20
2022-07-27T02:42:50.266Z,0.20
2022-07-27T02:45:19.837Z,0.40
2022-07-27T02:47:49.321Z,0.10
2022-07-27T02:50:18.831Z,0.27
2022-07-27T02:52:48.322Z,0.33
2022-07-27T02:55:17.819Z,0.20
2022-07-27T02:57:47.305Z,0.30
2022-07-27T03:00:18.062Z,0.30
2022-07-27T03:02:51.940Z,0.20
2022-07-27T03:05:21.795Z,0.37
2022-07-27T03:07:51.286Z,0.30
2022-07-27T03:10:20.800Z,0.30
2022-07-27T03:12:50.284Z,0.30
2022-07-27T03:15:19.794Z,0.10
2022-07-27T03:17:49.281Z,0.23
2022-07-27T03:20:18.865Z,0.30
2022-07-27T03:22:48.354Z,0.40
2022-07-27T03:25:17.862Z,0.40
2022-07-27T03:27:47.354Z,0.20
2022-07-27T03:30:17.239Z,0.20
2022-07-27T03:32:48.211Z,0.20
2022-07-27T03:35:17.757Z,0.20
2022-07-27T03:37:48.999Z,0.30
2022-07-27T03:40:18.908Z,0.25
2022-07-27T03:42:48.469Z,0.60
2022-07-27T03:45:17.979Z,0.60
2022-07-27T03:47:47.536Z,0.30
2022-07-27T03:50:17.051Z,0.30
2022-07-27T03:52:46.534Z,0.20
2022-07-27T03:55:16.113Z,0.20
2022-07-27T03:57:45.643Z,0.40
2022-07-27T04:00:15.903Z,0.20
2022-07-27T04:02:45.447Z,0.40
2022-07-27T04:05:15.022Z,0.20
2022-07-27T04:07:44.510Z,0.30
2022-07-27T04:10:14.185Z,0.30
2022-07-27T04:12:43.767Z,0.57
2022-07-27T04:15:15.013Z,0.47
2022-07-27T04:17:54.919Z,0.47
2022-07-27T04:20:16.281Z,0.37
2022-07-27T04:22:45.766Z,0.30
2022-07-27T04:25:15.273Z,0.20
2022-07-27T04:27:44.793Z,0.37
2022-07-27T04:30:14.894Z,0.40
2022-07-27T04:32:44.386Z,0.50
2022-07-27T04:35:14.090Z,0.37
2022-07-27T04:37:58.594Z,0.50
2022-07-27T04:40:14.862Z,0.20
2022-07-27T04:42:49.552Z,0.30
2022-07-27T04:45:16.052Z,0.20
2022-07-27T04:47:45.546Z,0.50
2022-07-27T04:50:15.154Z,0.40
2022-07-27T04:52:44.646Z,0.60
2022-07-27T04:55:14.222Z,0.30
2022-07-27T04:57:43.722Z,0.20
2022-07-27T05:00:13.685Z,0.40
2022-07-27T05:02:43.648Z,0.30
2022-07-27T05:05:13.213Z,0.40
2022-07-27T05:07:42.722Z,0.30
2022-07-27T05:10:15.389Z,0.37
2022-07-27T05:12:43.647Z,0.30
2022-07-27T05:15:13.358Z,0.50
2022-07-27T05:17:43.128Z,0.40
2022-07-27T05:20:19.239Z,0.30
2022-07-27T05:22:48.728Z,0.33
2022-07-27T05:25:18.373Z,0.63
2022-07-27T05:27:54.491Z,0.40
2022-07-27T05:30:20.464Z,0.50
2022-07-27T05:32:50.041Z,0.80
2022-07-27T05:35:19.591Z,0.63
2022-07-27T05:37:49.257Z,0.70
2022-07-27T05:40:18.935Z,0.50
2022-07-27T05:42:48.807Z,0.40
2022-07-27T05:45:18.312Z,0.50
2022-07-27T05:47:47.836Z,0.80
2022-07-27T05:50:18.192Z,0.70
2022-07-27T05:52:47.831Z,0.70
2022-07-27T05:55:17.326Z,0.53
2022-07-27T05:57:46.834Z,0.67
2022-07-27T06:00:16.607Z,0.50
2022-07-27T06:02:46.090Z,0.60
2022-07-27T06:05:17.491Z,0.60
2022-07-27T06:08:06.801Z,0.60
2022-07-27T06:10:40.154Z,0.40
2022-07-27T06:13:14.834Z,0.90
2022-07-27T06:15:44.353Z,0.90
2022-07-27T06:18:15.492Z,0.50
2022-07-27T06:20:45.784Z,0.77
2022-07-27T06:23:15.350Z,1.00
2022-07-27T06:25:44.866Z,0.70
2022-07-27T06:28:14.370Z,0.70
2022-07-27T06:30:43.886Z,0.60
2022-07-27T06:33:14.059Z,0.90
2022-07-27T06:35:44.245Z,0.70
2022-07-27T06:38:14.595Z,0.77
2022-07-27T06:40:44.337Z,0.70
2022-07-27T06:43:15.563Z,0.80
2022-07-27T06:45:45.786Z,0.70
2022-07-27T06:48:15.720Z,0.70
2022-07-27T06:50:45.980Z,0.80
2022-07-27T06:53:20.626Z,0.83
2022-07-27T06:55:47.129Z,0.60
2022-07-27T06:58:16.629Z,0.70
2022-07-27T07:00:47.795Z,0.70
2022-07-27T07:03:17.461Z,0.80
2022-07-27T07:05:48.774Z,0.70
2022-07-27T07:08:18.906Z,1.07
2022-07-27T07:10:48.709Z,0.60
2022-07-27T07:13:18.444Z,0.60
2022-07-27T07:15:48.065Z,0.47
2022-07-27T07:18:17.538Z,0.60
2022-07-27T07:20:47.098Z,0.42
2022-07-27T07:23:16.590Z,0.63
2022-07-27T07:25:46.095Z,0.80
2022-07-27T07:28:15.664Z,0.70
2022-07-27T07:30:45.178Z,0.60
2022-07-27T07:33:14.667Z,0.60
2022-07-27T07:36:12.460Z,0.60
2022-07-27T07:38:15.470Z,0.40
2022-07-27T07:40:45.421Z,0.50
2022-07-27T07:43:15.605Z,0.80
2022-07-27T07:45:51.562Z,0.63
2022-07-27T07:48:16.938Z,0.40
2022-07-27T07:50:46.471Z,0.47
2022-07-27T07:53:17.753Z,0.40
2022-07-27T07:55:47.343Z,0.50
2022-07-27T07:58:16.843Z,0.30
2022-07-27T08:00:46.373Z,0.40
2022-07-27T08:03:16.778Z,0.30
2022-07-27T08:05:46.459Z,0.57
2022-07-27T08:08:16.120Z,0.40
2022-07-27T08:10:45.709Z,0.40
2022-07-27T08:13:21.846Z,0.50
2022-07-27T08:15:49.065Z,0.50
2022-07-27T08:18:19.152Z,0.50
2022-07-27T08:20:49.438Z,0.60
2022-07-27T08:23:18.935Z,0.30
2022-07-27T08:25:48.575Z,0.43
2022-07-27T08:28:18.091Z,0.50
2022-07-27T08:30:48.491Z,0.50
2022-07-27T08:33:19.490Z,0.67
2022-07-27T08:35:49.199Z,0.50
2022-07-27T08:38:18.701Z,0.40
2022-07-27T08:40:49.840Z,0.90
2022-07-27T08:43:25.174Z,0.70
2022-07-27T08:46:01.281Z,0.50
2022-07-27T08:48:32.427Z,0.47
2022-07-27T08:51:02.107Z,0.60
2022-07-27T08:53:52.166Z,0.30
2022-07-27T08:56:05.826Z,0.57
2022-07-27T08:58:35.337Z,0.30
2022-07-27T09:01:04.834Z,0.40
2022-07-27T09:03:34.375Z,0.47
2022-07-27T09:06:04.676Z,0.50
2022-07-27T09:11:04.878Z,0.40
2022-07-27T09:13:35.816Z,0.40
2022-07-27T09:16:20.308Z,0.50
2022-07-27T09:18:42.626Z,0.50
2022-07-27T09:21:25.085Z,0.40
2022-07-27T09:24:01.763Z,0.43
2022-07-27T09:26:33.759Z,0.40
2022-07-27T09:29:17.945Z,0.30
2022-07-27T09:31:52.858Z,0.43
2022-07-27T09:34:33.398Z,0.40
2022-07-27T09:37:05.862Z,0.40
2022-07-27T09:39:35.753Z,0.50
2022-07-27T09:42:05.332Z,0.40
2022-07-27T09:44:44.822Z,0.40
2022-07-27T09:47:29.300Z,0.60
2022-07-27T09:50:23.316Z,0.60
2022-07-27T09:52:52.997Z,0.60
2022-07-27T09:55:23.243Z,0.37
2022-07-27T09:57:56.644Z,0.40
2022-07-27T10:00:28.064Z,0.30
2022-07-27T10:02:57.630Z,0.50
2022-07-27T10:05:27.680Z,0.30
2022-07-27T10:07:57.467Z,0.40
2022-07-27T10:10:27.113Z,0.70
2022-07-27T10:12:56.881Z,0.40
2022-07-27T10:15:27.409Z,0.70
2022-07-27T10:18:07.408Z,0.53
2022-07-27T10:20:40.504Z,0.50
2022-07-27T10:23:11.701Z,0.60
2022-07-27T10:25:44.874Z,0.50
2022-07-27T10:28:17.939Z,0.40
2022-07-27T10:30:53.849Z,0.50
2022-07-27T10:33:52.232Z,0.67
2022-07-27T10:36:34.660Z,0.50
2022-07-27T10:39:09.626Z,0.53
2022-07-27T10:41:43.821Z,0.67
2022-07-27T10:44:25.613Z,0.40
2022-07-27T10:47:04.686Z,0.50
2022-07-27T10:49:40.642Z,0.53
2022-07-27T10:52:10.682Z,0.40
2022-07-27T10:54:41.896Z,0.40
2022-07-27T10:57:11.466Z,0.50
2022-07-27T11:02:19.191Z,0.40
2022-07-27T11:04:52.654Z,0.30
2022-07-27T11:07:34.381Z,0.47
2022-07-27T11:10:05.014Z,0.50
2022-07-27T11:12:37.345Z,0.30
2022-07-27T11:15:08.396Z,0.50
2022-07-27T11:20:11.959Z,0.60
2022-07-27T11:25:15.147Z,0.47
2022-07-27T11:27:53.889Z,0.60
2022-07-27T11:30:28.838Z,0.40
2022-07-27T11:32:58.454Z,0.40
2022-07-27T11:35:28.019Z,0.50
2022-07-27T11:38:05.264Z,0.47
2022-07-27T11:40:56.774Z,0.37
2022-07-27T11:43:41.525Z,0.30
2022-07-27T11:46:27.029Z,0.50
2022-07-27T11:49:07.115Z,0.50
2022-07-27T11:51:48.578Z,0.53
2022-07-27T11:54:30.946Z,0.60
2022-07-27T11:57:04.251Z,0.47
2022-07-27T11:59:36.758Z,0.40
2022-07-27T12:02:22.278Z,0.70
2022-07-27T12:05:00.504Z,0.40
2022-07-27T12:07:32.655Z,0.60
2022-07-27T12:10:07.099Z,0.50
2022-07-27T12:12:38.843Z,0.40
2022-07-27T12:17:59.163Z,0.40
2022-07-27T12:20:34.811Z,0.60
2022-07-27T12:23:10.006Z,0.53
2022-07-27T12:25:41.286Z,0.43
2022-07-27T12:28:17.052Z,0.60
2022-07-27T12:30:50.511Z,0.47
2022-07-27T12:33:42.000Z,0.47
2022-07-27T12:36:12.159Z,0.40
2022-07-27T12:38:49.621Z,0.50
2022-07-27T12:41:35.524Z,0.60
2022-07-27T12:44:17.046Z,0.60
2022-07-27T12:47:02.815Z,0.40
2022-07-27T12:49:35.757Z,0.47
2022-07-27T12:52:11.385Z,0.70
2022-07-27T12:54:41.111Z,0.60
2022-07-27T12:57:10.626Z,0.57
2022-07-27T12:59:41.754Z,0.80
2022-07-27T13:02:11.477Z,0.50
2022-07-27T13:04:41.100Z,0.33
2022-07-27T13:07:10.602Z,0.47
2022-07-27T13:10:01.979Z,0.63
2022-07-27T13:12:11.493Z,0.63
2022-07-27T13:14:43.313Z,0.37
2022-07-27T13:17:12.602Z,0.70
2022-07-27T13:19:42.092Z,0.53
2022-07-27T13:22:11.666Z,0.53
2022-07-27T13:24:41.153Z,0.43
2022-07-27T13:27:11.770Z,0.60
2022-07-27T13:29:41.768Z,0.50
2022-07-27T13:32:11.350Z,0.40
2022-07-27T13:34:41.006Z,0.50
2022-07-27T13:37:10.505Z,0.57
2022-07-27T13:39:40.050Z,0.50
2022-07-27T13:42:09.618Z,0.53
2022-07-27T13:47:10.504Z,0.60
2022-07-27T13:49:39.990Z,0.77
2022-07-27T13:52:11.124Z,0.70
2022-07-27T13:54:40.619Z,0.93
2022-07-27T13:57:10.115Z,0.77
2022-07-27T13:59:39.612Z,0.70
2022-07-27T14:02:10.220Z,0.80
2022-07-27T14:04:41.235Z,0.67
2022-07-27T14:07:12.071Z,0.77
2022-07-27T14:09:59.618Z,0.60
2022-07-27T14:12:29.117Z,0.53
2022-07-27T14:14:58.605Z,0.40
2022-07-27T14:17:28.103Z,0.50
2022-07-27T14:19:57.589Z,0.60
2022-07-27T14:22:27.097Z,0.80
2022-07-27T14:24:56.587Z,0.80
2022-07-27T14:27:26.083Z,0.70
2022-07-27T14:29:57.296Z,0.93
2022-07-27T14:32:26.796Z,0.80
2022-07-27T14:34:56.292Z,0.87
2022-07-27T14:37:25.806Z,0.60
2022-07-27T14:39:55.293Z,1.63
2022-07-27T14:42:25.168Z,1.40
2022-07-27T14:44:55.014Z,1.23
2022-07-27T14:47:25.054Z,0.90
2022-07-27T14:49:54.990Z,0.77
2022-07-27T14:52:24.736Z,0.47
2022-07-27T14:54:55.929Z,0.67
2022-07-27T14:57:25.447Z,0.40
2022-07-27T14:59:55.646Z,0.50
2022-07-27T15:02:25.315Z,0.57
2022-07-27T15:04:54.827Z,0.40
2022-07-27T15:07:24.313Z,0.40
2022-07-27T15:09:53.805Z,0.40
2022-07-27T15:12:23.387Z,0.37
2022-07-27T15:14:53.084Z,0.30
2022-07-27T15:17:22.762Z,0.50
2022-07-27T15:19:52.421Z,0.60
2022-07-27T15:22:22.001Z,0.80
2022-07-27T15:24:53.305Z,0.60
2022-07-27T15:27:22.810Z,0.50
2022-07-27T15:29:52.318Z,0.50
2022-07-27T15:32:21.830Z,0.60
2022-07-27T15:34:53.063Z,0.50
2022-07-27T15:37:22.750Z,0.67
2022-07-27T15:39:52.725Z,0.40
2022-07-27T15:42:22.285Z,0.53
2022-07-27T15:44:51.764Z,0.40
2022-07-27T15:47:21.347Z,0.50
2022-07-27T15:49:50.868Z,0.40
2022-07-27T15:52:20.392Z,0.33
2022-07-27T15:54:50.143Z,0.40
2022-07-27T15:57:19.889Z,0.50
2022-07-27T15:59:49.382Z,0.40
2022-07-27T16:02:24.629Z,0.50
2022-07-27T16:04:50.125Z,0.40
2022-07-27T16:07:19.644Z,0.30
2022-07-27T16:09:49.134Z,0.40
2022-07-27T16:12:19.528Z,0.57
2022-07-27T16:14:49.861Z,0.40
2022-07-27T16:17:19.427Z,0.30
2022-07-27T16:19:48.972Z,0.40
2022-07-27T16:22:18.489Z,0.37
2022-07-27T16:24:48.091Z,0.40
2022-07-27T16:27:17.622Z,0.50
2022-07-27T16:29:47.171Z,0.37
2022-07-27T16:32:16.697Z,0.50
2022-07-27T16:34:46.246Z,0.40
2022-07-27T16:37:15.762Z,0.37
2022-07-27T16:39:45.254Z,0.40
2022-07-27T16:42:14.776Z,0.43
2022-07-27T16:44:44.255Z,0.50
2022-07-27T16:47:13.770Z,0.40
2022-07-27T16:49:43.323Z,0.30
2022-07-27T16:52:12.841Z,0.40
2022-07-27T16:54:42.399Z,0.40
2022-07-27T16:57:11.910Z,0.40
2022-07-27T16:59:42.870Z,0.40
2022-07-27T17:02:12.891Z,0.40
2022-07-27T17:04:42.464Z,0.30
2022-07-27T17:07:12.495Z,0.40
2022-07-27T17:09:42.734Z,0.30
2022-07-27T17:12:17.451Z,0.30
2022-07-27T17:14:43.481Z,0.40
2022-07-27T17:17:12.995Z,0.47
2022-07-27T17:19:42.860Z,0.23
2022-07-27T17:22:12.364Z,0.60
2022-07-27T17:24:41.946Z,0.40
2022-07-27T17:27:11.443Z,0.50
2022-07-27T17:29:41.131Z,0.40
2022-07-27T17:32:10.632Z,0.40
2022-07-27T17:34:41.507Z,0.53
2022-07-27T17:37:11.141Z,0.37
2022-07-27T17:39:40.632Z,0.30
2022-07-27T17:42:10.343Z,0.50
2022-07-27T17:44:39.846Z,0.30
2022-07-27T17:47:09.341Z,0.60
2022-07-27T17:49:38.829Z,0.30
2022-07-27T17:52:08.484Z,0.40
2022-07-27T17:54:39.622Z,0.60
2022-07-27T17:57:10.053Z,0.70
2022-07-27T17:59:40.079Z,0.57
2022-07-27T18:02:10.186Z,0.30
2022-07-27T18:04:40.021Z,0.50
2022-07-27T18:07:09.896Z,0.57
2022-07-27T18:09:39.671Z,0.50
2022-07-27T18:12:09.474Z,0.20
2022-07-27T18:14:40.613Z,0.57
2022-07-27T18:17:10.126Z,0.50
2022-07-27T18:19:39.637Z,0.50
2022-07-27T18:22:09.151Z,0.50
2022-07-27T18:24:39.621Z,0.50
2022-07-27T18:27:09.187Z,0.43
2022-07-27T18:29:38.785Z,0.50
2022-07-27T18:32:08.443Z,0.50
2022-07-27T18:34:38.523Z,0.50
2022-07-27T18:37:08.049Z,0.50
2022-07-27T18:39:38.003Z,0.40
2022-07-27T18:42:07.584Z,0.50
2022-07-27T18:44:39.117Z,0.50
2022-07-27T18:47:08.467Z,0.30
2022-07-27T18:49:38.121Z,0.50
2022-07-27T18:52:07.963Z,0.40
2022-07-27T18:54:37.534Z,0.40
2022-07-27T18:57:07.468Z,0.40
2022-07-27T18:59:40.778Z,0.50
2022-07-27T19:02:09.536Z,0.67
2022-07-27T19:04:39.122Z,0.70
2022-07-27T19:07:11.306Z,0.63
2022-07-27T19:09:42.540Z,0.50
2022-07-27T19:12:12.319Z,0.50
2022-07-27T19:14:42.030Z,0.50
2022-07-27T19:17:14.837Z,0.50
2022-07-27T19:19:42.854Z,0.47
2022-07-27T19:22:12.732Z,0.40
2022-07-27T19:24:42.787Z,0.50
2022-07-27T19:27:12.571Z,0.43
2022-07-27T19:29:42.833Z,0.40
2022-07-27T19:32:14.330Z,0.40
2022-07-27T19:34:44.988Z,0.50
2022-07-27T19:37:14.492Z,0.63
2022-07-27T19:39:59.896Z,0.40
2022-07-27T19:42:15.284Z,0.40
2022-07-27T19:44:44.782Z,0.30
2022-07-27T19:47:14.531Z,0.43
2022-07-27T19:49:44.027Z,0.40
2022-07-27T19:52:13.803Z,0.37
2022-07-27T19:54:43.327Z,0.30
2022-07-27T19:57:13.088Z,0.40
2022-07-27T19:59:55.458Z,0.30
2022-07-27T20:02:15.796Z,0.50
2022-07-27T20:04:46.188Z,0.30
2022-07-27T20:07:15.999Z,0.30
2022-07-27T20:09:45.887Z,0.40
2022-07-27T20:12:15.669Z,0.30
2022-07-27T20:14:45.484Z,0.50
2022-07-27T20:17:15.312Z,0.50
2022-07-27T20:19:45.278Z,0.40
2022-07-27T20:22:14.865Z,0.40
2022-07-27T20:24:44.359Z,0.43
2022-07-27T20:27:13.866Z,0.87
2022-07-27T20:29:43.441Z,0.60
2022-07-27T20:32:13.415Z,0.50
2022-07-27T20:34:42.977Z,0.50
2022-07-27T20:37:12.771Z,0.50
2022-07-27T20:39:42.250Z,0.40
2022-07-27T20:42:11.762Z,0.60
2022-07-27T20:44:41.254Z,0.50
2022-07-27T20:47:12.239Z,0.50
2022-07-27T20:49:41.820Z,0.50
2022-07-27T20:52:11.402Z,0.47
2022-07-27T20:54:40.883Z,0.40
2022-07-27T20:57:10.582Z,0.30
2022-07-27T20:59:40.064Z,0.30
2022-07-27T21:02:09.767Z,0.40
2022-07-27T21:04:39.291Z,0.30
2022-07-27T21:07:08.802Z,0.30
2022-07-27T21:09:38.306Z,0.30
2022-07-27T21:12:09.691Z,0.40
2022-07-27T21:14:39.266Z,0.33
2022-07-27T21:17:08.829Z,0.30
2022-07-27T21:19:38.625Z,0.37
2022-07-27T21:22:08.147Z,0.30
2022-07-27T21:24:37.622Z,0.30
2022-07-27T21:27:09.053Z,0.37
2022-07-27T21:29:38.606Z,0.30
2022-07-27T21:32:08.269Z,0.30
2022-07-27T21:34:37.761Z,0.40
2022-07-27T21:37:07.535Z,0.23
2022-07-27T21:39:37.013Z,0.40
2022-07-27T21:42:07.675Z,0.30
2022-07-27T21:44:37.450Z,0.70
2022-07-27T21:47:13.096Z,0.30
2022-07-27T21:49:38.220Z,0.30
2022-07-27T21:52:07.952Z,0.40
2022-07-27T21:54:37.917Z,0.70
2022-07-27T21:57:07.487Z,0.40
2022-07-27T21:59:37.063Z,0.53
2022-07-27T22:02:06.612Z,0.43
2022-07-27T22:04:36.345Z,0.60
2022-07-27T22:07:06.186Z,0.50
2022-07-27T22:09:35.674Z,0.43
2022-07-27T22:12:07.202Z,0.53
2022-07-27T22:14:36.688Z,0.90
2022-07-27T22:17:06.182Z,0.50
2022-07-27T22:19:36.046Z,0.40
2022-07-27T22:22:05.513Z,0.53
2022-07-27T22:24:35.039Z,0.67
2022-07-27T22:27:05.772Z,0.57
2022-07-27T22:29:36.948Z,0.63
2022-07-27T22:32:07.034Z,0.60
2022-07-27T22:34:36.797Z,0.60
2022-07-27T22:37:06.295Z,0.60
2022-07-27T22:39:35.958Z,0.47
2022-07-27T22:42:07.687Z,0.50
2022-07-27T22:44:38.109Z,0.43
2022-07-27T22:47:07.868Z,0.60
2022-07-27T22:49:37.908Z,0.47
2022-07-27T22:52:08.207Z,0.43
2022-07-27T22:54:39.328Z,0.60
2022-07-27T22:57:09.303Z,0.57
2022-07-27T22:59:38.790Z,0.40
2022-07-27T23:02:08.374Z,0.63
2022-07-27T23:04:38.025Z,0.30
2022-07-27T23:07:07.525Z,0.30
2022-07-27T23:09:37.017Z,0.50
2022-07-27T23:12:07.911Z,0.60
2022-07-27T23:14:37.392Z,0.50
2022-07-27T23:17:06.890Z,0.50
2022-07-27T23:19:36.379Z,0.37
2022-07-27T23:22:05.893Z,0.57
2022-07-27T23:24:37.461Z,0.50
2022-07-27T23:27:08.694Z,0.40
2022-07-27T23:29:38.177Z,0.40
2022-07-27T23:32:09.487Z,0.57
2022-07-27T23:34:38.965Z,0.40
2022-07-27T23:37:08.465Z,0.43
2022-07-27T23:39:37.941Z,0.40
2022-07-27T23:42:07.579Z,0.30
2022-07-27T23:44:37.063Z,0.50
2022-07-27T23:47:06.637Z,0.47
2022-07-27T23:49:36.123Z,0.50
2022-07-27T23:52:05.832Z,0.50
2022-07-27T23:54:35.344Z,0.40
2022-07-27T23:57:04.912Z,0.30
2022-07-27T23:59:34.576Z,0.40
